KMGW

Morgantown Municipal-Walter L Bill Hart Field Airport

Morgantown, West Virginia, USA
KMGW 251842Z 2519/2618 20008KT 6SM BR VCSH BKN035 TEMPO 2519/2522 3SM -RA OVC010 FM261000 20007KT P6SM -SHRA OVC035 FM261200 20008G21KT P6SM -SHRA OVC020 FM261600 22008G25KT 3SM -SHRA VCTS OVC015CB
Issued Valid From Valid To
Sep-25 @ 18:42 UTC
(21 minutes ago)
Sep-25 @ 19:00 UTC
(3 minutes ago)
Sep-26 @ 18:00 UTC
(in 23 hours)
Sep-25 @ 19:00 to Sep-26 @ 10:00
KMGW 251842Z 2519/2618 20008KT 6SM BR VCSH BKN035
Wind Visibility Clouds Conditions
200° at 8 knots 6 miles
  • Broken at 3,500' AGL
  • Mist
Temporary Sep-25 @ 19:00 to Sep-25 @ 22:00
TEMPO 2519/2522 3SM -RA OVC010
Visibility Clouds Conditions
3 miles
  • Overcast at 1,000' AGL
  • Light Rain
From Sep-26 @ 10:00 to Sep-26 @ 12:00
FM261000 20007KT P6SM -SHRA OVC035
Wind Visibility Clouds Conditions
200° at 7 knots Greater than 6 miles
  • Overcast at 3,500' AGL
  • Light Rain
From Sep-26 @ 12:00 to Sep-26 @ 16:00
FM261200 20008G21KT P6SM -SHRA OVC020
Wind Visibility Clouds Conditions
200° at 8 knots
 Gusting to 21 knots
Greater than 6 miles
  • Overcast at 2,000' AGL
  • Light Rain
From Sep-26 @ 16:00 to Sep-26 @ 18:00
FM261600 22008G25KT 3SM -SHRA VCTS OVC015CB
Wind Visibility Clouds Conditions
220° at 8 knots
 Gusting to 25 knots
3 miles
  • Overcast at 1,500' AGL
  • Light Rain
  • Area Thunderstorm
KMGW 251842Z 2519/2618 20008KT 6SM BR VCSH BKN035 TEMPO 2519/2522 3SM -RA OVC010 FM261000 20007KT P6SM -SHRA OVC035 FM261200 20008G21KT P6SM -SHRA OVC020 FM261600 22008G25KT 3SM -SHRA VCTS OVC015CB
Issued Sep-25 @ 18:42 UTC
(21 minutes ago)
Valid From Sep-25 @ 19:00 UTC
(3 minutes ago)
Valid To Sep-26 @ 18:00 UTC
(in 23 hours)
Sep-25 @ 19:00 - Sep-26 @ 10:00
Wind Visibility
200° at 8 knots 6 miles
Clouds
  • Broken at 3,500' AGL
Conditions
  • Mist
Temporary Sep-25 @ 19:00 - Sep-25 @ 22:00
Clouds
  • Overcast at 1,000' AGL
Conditions
  • Light Rain
From Sep-26 @ 10:00 - Sep-26 @ 12:00
Wind Visibility
200° at 7 knots Greater than 6 miles
Clouds
  • Overcast at 3,500' AGL
Conditions
  • Light Rain
From Sep-26 @ 12:00 - Sep-26 @ 16:00
Wind Visibility
200° at 8 knots
 Gusting to 21 knots
Greater than 6 miles
Clouds
  • Overcast at 2,000' AGL
Conditions
  • Light Rain
From Sep-26 @ 16:00 - Sep-26 @ 18:00
Wind Visibility
220° at 8 knots
 Gusting to 25 knots
3 miles
Clouds
  • Overcast at 1,500' AGL
Conditions
  • Light Rain
  • Area Thunderstorm